KIRK

Kirksville Regional Airport

Kirksville, Missouri, USA
METAR KIRK 230055Z AUTO 00000KT 10SM CLR 10/07 A3016 RMK AO2 SLP220 T01000072 $
Observed Flight Rules
Oct-23 @ 00:55 UTC (22 minutes ago) Visual Flight Rules
Visibility Clouds
10 miles
  • Clear skies
Temperatures Readings
Current 10°C / 50°F
Dewpoint 7°C / 45°F
Humidity 82%
Altimeter 30.16" Hg
Pressure 1022 hPa
Elevation 293
METAR KIRK 230055Z AUTO 00000KT 10SM CLR 10/07 A3016 RMK AO2 SLP220 T01000072 $
Observed Flight Rules
Oct-23 @ 00:55 UTC
(22 minutes ago)
VFR
Clouds
  • Clear skies
Temperature Dewpoint
10°C / 50°F 7°C / 45°F
Humidity Altimeter Pressure
82% 30.16" Hg 1022 hPa